sensor_id;sensor_type;location;lat;lon;timestamp;pressure;altitude;pressure_sealevel;temperature;humidity
18850;BME280;4989;48.772;9.154;2023-02-21T00:02:38;98508.69;;;9.23;71.58
18850;BME280;4989;48.772;9.154;2023-02-21T00:07:59;98500.38;;;8.99;68.37
18850;BME280;4989;48.772;9.154;2023-02-21T00:13:20;98497.75;;;8.81;71.06
18850;BME280;4989;48.772;9.154;2023-02-21T00:18:41;98494.03;;;9.16;70.83
18850;BME280;4989;48.772;9.154;2023-02-21T00:24:02;98490.84;;;9.25;70.49
18850;BME280;4989;48.772;9.154;2023-02-21T00:29:23;98487.75;;;9.27;68.09
18850;BME280;4989;48.772;9.154;2023-02-21T00:34:44;98487.53;;;9.03;70.82
18850;BME280;4989;48.772;9.154;2023-02-21T00:40:12;98482.41;;;9.16;71.14
18850;BME280;4989;48.772;9.154;2023-02-21T00:45:33;98481.06;;;8.86;71.85
18850;BME280;4989;48.772;9.154;2023-02-21T00:50:54;98466.34;;;8.87;67.63
18850;BME280;4989;48.772;9.154;2023-02-21T00:56:15;98477.16;;;8.91;68.06
18850;BME280;4989;48.772;9.154;2023-02-21T01:01:36;98467.25;;;8.66;73.53
18850;BME280;4989;48.772;9.154;2023-02-21T01:06:57;98464.25;;;9.09;73.21
18850;BME280;4989;48.772;9.154;2023-02-21T01:12:18;98467.94;;;9.33;68.67
18850;BME280;4989;48.772;9.154;2023-02-21T01:17:39;98464.53;;;9.22;72.22
18850;BME280;4989;48.772;9.154;2023-02-21T01:22:59;98469.03;;;8.91;69.85
18850;BME280;4989;48.772;9.154;2023-02-21T01:28:20;98463.25;;;8.89;74.73
18850;BME280;4989;48.772;9.154;2023-02-21T01:33:41;98460.97;;;8.84;73.44
18850;BME280;4989;48.772;9.154;2023-02-21T01:39:02;98464.44;;;9.36;72.67
18850;BME280;4989;48.772;9.154;2023-02-21T01:44:35;98466.78;;;9.31;72.29
18850;BME280;4989;48.772;9.154;2023-02-21T01:49:59;98456.81;;;9.21;72.24
18850;BME280;4989;48.772;9.154;2023-02-21T01:55:21;98447.69;;;9.00;73.09
18850;BME280;4989;48.772;9.154;2023-02-21T02:00:43;98446.97;;;8.89;70.92
18850;BME280;4989;48.772;9.154;2023-02-21T02:06:09;98440.03;;;8.88;70.00
18850;BME280;4989;48.772;9.154;2023-02-21T02:17:44;98432.38;;;9.24;69.86
18850;BME280;4989;48.772;9.154;2023-02-21T02:39:28;98418.00;;;9.27;71.35
18850;BME280;4989;48.772;9.154;2023-02-21T02:44:47;98410.63;;;9.28;73.56
18850;BME280;4989;48.772;9.154;2023-02-21T02:49:54;98400.84;;;9.37;72.95
18850;BME280;4989;48.772;9.154;2023-02-21T03:00:48;98402.94;;;9.23;78.32
18850;BME280;4989;48.772;9.154;2023-02-21T03:06:30;98409.50;;;9.25;73.94
18850;BME280;4989;48.772;9.154;2023-02-21T03:11:51;98416.81;;;8.87;76.78
18850;BME280;4989;48.772;9.154;2023-02-21T03:17:03;98409.41;;;8.91;77.59
18850;BME280;4989;48.772;9.154;2023-02-21T03:22:14;98412.19;;;8.84;75.50
18850;BME280;4989;48.772;9.154;2023-02-21T03:27:19;98406.13;;;8.65;76.68
18850;BME280;4989;48.772;9.154;2023-02-21T03:32:39;98403.78;;;8.67;73.98
18850;BME280;4989;48.772;9.154;2023-02-21T03:37:49;98412.56;;;8.12;72.05
18850;BME280;4989;48.772;9.154;2023-02-21T03:43:02;98412.44;;;8.37;77.22
18850;BME280;4989;48.772;9.154;2023-02-21T03:48:20;98410.09;;;8.46;74.74
18850;BME280;4989;48.772;9.154;2023-02-21T03:53:37;98413.66;;;8.29;72.40
18850;BME280;4989;48.772;9.154;2023-02-21T03:58:41;98417.34;;;7.79;73.51
18850;BME280;4989;48.772;9.154;2023-02-21T04:03:43;98417.47;;;7.08;76.85
18850;BME280;4989;48.772;9.154;2023-02-21T04:08:45;98421.34;;;6.82;78.58
18850;BME280;4989;48.772;9.154;2023-02-21T04:13:48;98406.66;;;6.65;79.82
18850;BME280;4989;48.772;9.154;2023-02-21T04:18:50;98411.28;;;6.64;81.35
18850;BME280;4989;48.772;9.154;2023-02-21T04:23:54;98406.63;;;6.47;81.85
18850;BME280;4989;48.772;9.154;2023-02-21T04:29:01;98408.94;;;6.41;83.10
18850;BME280;4989;48.772;9.154;2023-02-21T04:34:04;98408.97;;;6.74;83.48
18850;BME280;4989;48.772;9.154;2023-02-21T04:39:16;98419.00;;;7.30;97.19
18850;BME280;4989;48.772;9.154;2023-02-21T04:44:18;98424.34;;;7.59;78.96
18850;BME280;4989;48.772;9.154;2023-02-21T04:49:21;98420.53;;;7.39;78.53
18850;BME280;4989;48.772;9.154;2023-02-21T04:54:26;98417.44;;;7.37;80.69
18850;BME280;4989;48.772;9.154;2023-02-21T04:59:29;98417.41;;;7.44;80.54
18850;BME280;4989;48.772;9.154;2023-02-21T05:04:31;98421.28;;;7.50;90.11
18850;BME280;4989;48.772;9.154;2023-02-21T05:09:33;98413.94;;;7.54;78.84
18850;BME280;4989;48.772;9.154;2023-02-21T05:14:39;98411.25;;;7.47;79.08
18850;BME280;4989;48.772;9.154;2023-02-21T05:19:42;98408.94;;;7.34;78.11
18850;BME280;4989;48.772;9.154;2023-02-21T05:24:44;98396.25;;;7.17;78.90
18850;BME280;4989;48.772;9.154;2023-02-21T05:29:51;98395.84;;;7.19;81.97
18850;BME280;4989;48.772;9.154;2023-02-21T05:34:53;98398.06;;;7.63;83.46
18850;BME280;4989;48.772;9.154;2023-02-21T05:39:55;98406.59;;;7.47;78.40
18850;BME280;4989;48.772;9.154;2023-02-21T05:44:58;98407.84;;;7.14;79.60
18850;BME280;4989;48.772;9.154;2023-02-21T05:50:01;98408.22;;;7.05;80.00
18850;BME280;4989;48.772;9.154;2023-02-21T05:55:03;98404.72;;;6.98;80.02
18850;BME280;4989;48.772;9.154;2023-02-21T06:00:11;98410.09;;;7.48;98.53
18850;BME280;4989;48.772;9.154;2023-02-21T06:05:14;98403.44;;;7.74;79.36
18850;BME280;4989;48.772;9.154;2023-02-21T06:10:17;98397.38;;;7.30;78.51
18850;BME280;4989;48.772;9.154;2023-02-21T06:15:19;98394.31;;;7.03;80.51
18850;BME280;4989;48.772;9.154;2023-02-21T06:20:22;98394.66;;;7.30;81.40
18850;BME280;4989;48.772;9.154;2023-02-21T06:25:24;98385.03;;;7.15;80.52
18850;BME280;4989;48.772;9.154;2023-02-21T06:30:26;98379.66;;;7.01;80.93
18850;BME280;4989;48.772;9.154;2023-02-21T06:35:28;98387.28;;;7.49;86.80
18850;BME280;4989;48.772;9.154;2023-02-21T06:40:30;98388.75;;;7.78;81.75
18850;BME280;4989;48.772;9.154;2023-02-21T06:45:33;98394.19;;;7.75;80.79
18850;BME280;4989;48.772;9.154;2023-02-21T06:50:35;98406.81;;;8.03;86.92
18850;BME280;4989;48.772;9.154;2023-02-21T06:55:37;98421.41;;;8.27;84.06
18850;BME280;4989;48.772;9.154;2023-02-21T07:00:40;98419.88;;;8.22;81.28
18850;BME280;4989;48.772;9.154;2023-02-21T07:05:42;98415.50;;;8.46;87.70
18850;BME280;4989;48.772;9.154;2023-02-21T07:10:44;98411.69;;;8.37;86.18
18850;BME280;4989;48.772;9.154;2023-02-21T07:15:46;98420.22;;;8.35;87.13
18850;BME280;4989;48.772;9.154;2023-02-21T07:20:49;98411.38;;;8.24;83.80
18850;BME280;4989;48.772;9.154;2023-02-21T07:25:51;98405.88;;;8.35;83.73
18850;BME280;4989;48.772;9.154;2023-02-21T07:30:53;98407.16;;;9.27;76.54
18850;BME280;4989;48.772;9.154;2023-02-21T07:35:55;98406.31;;;8.89;80.71
18850;BME280;4989;48.772;9.154;2023-02-21T07:41:01;98405.19;;;8.83;85.02
18850;BME280;4989;48.772;9.154;2023-02-21T07:46:10;98407.25;;;9.16;84.55
18850;BME280;4989;48.772;9.154;2023-02-21T07:51:12;98406.41;;;9.27;76.33
18850;BME280;4989;48.772;9.154;2023-02-21T07:56:15;98398.19;;;9.34;77.57
18850;BME280;4989;48.772;9.154;2023-02-21T08:01:23;98396.06;;;9.52;83.28
18850;BME280;4989;48.772;9.154;2023-02-21T08:06:25;98397.41;;;9.71;81.05
18850;BME280;4989;48.772;9.154;2023-02-21T08:11:28;98405.88;;;9.77;76.14
18850;BME280;4989;48.772;9.154;2023-02-21T08:16:30;98412.72;;;9.89;79.46
18850;BME280;4989;48.772;9.154;2023-02-21T08:21:35;98416.41;;;10.05;76.01
18850;BME280;4989;48.772;9.154;2023-02-21T08:26:37;98414.94;;;9.97;70.96
18850;BME280;4989;48.772;9.154;2023-02-21T08:31:42;98416.03;;;10.03;71.77
18850;BME280;4989;48.772;9.154;2023-02-21T08:36:45;98420.84;;;10.23;80.40
18850;BME280;4989;48.772;9.154;2023-02-21T08:41:47;98419.88;;;12.57;72.70
18850;BME280;4989;48.772;9.154;2023-02-21T08:46:51;98423.81;;;12.56;61.74
18850;BME280;4989;48.772;9.154;2023-02-21T08:51:53;98413.59;;;11.84;65.77
18850;BME280;4989;48.772;9.154;2023-02-21T08:56:56;98420.41;;;11.96;72.96
18850;BME280;4989;48.772;9.154;2023-02-21T09:02:00;98420.16;;;11.67;67.08
18850;BME280;4989;48.772;9.154;2023-02-21T09:07:02;98409.16;;;12.50;62.70
18850;BME280;4989;48.772;9.154;2023-02-21T09:12:07;98402.06;;;13.51;59.60
18850;BME280;4989;48.772;9.154;2023-02-21T09:17:13;98408.19;;;14.90;51.92
18850;BME280;4989;48.772;9.154;2023-02-21T09:22:15;98409.91;;;14.07;55.82
18850;BME280;4989;48.772;9.154;2023-02-21T09:27:19;98406.47;;;13.61;57.22
18850;BME280;4989;48.772;9.154;2023-02-21T09:32:21;98396.78;;;13.73;62.86
18850;BME280;4989;48.772;9.154;2023-02-21T09:37:25;98408.69;;;14.08;56.00
18850;BME280;4989;48.772;9.154;2023-02-21T09:42:30;98407.69;;;14.57;54.35
18850;BME280;4989;48.772;9.154;2023-02-21T09:47:35;98388.47;;;14.18;56.29
18850;BME280;4989;48.772;9.154;2023-02-21T09:52:40;98395.72;;;14.89;56.38
18850;BME280;4989;48.772;9.154;2023-02-21T09:57:43;98400.50;;;15.80;51.78
18850;BME280;4989;48.772;9.154;2023-02-21T10:08:40;98382.13;;;16.12;49.88
18850;BME280;4989;48.772;9.154;2023-02-21T10:14:00;98373.47;;;16.54;49.26
18850;BME280;4989;48.772;9.154;2023-02-21T10:24:15;98369.97;;;18.46;44.00
18850;BME280;4989;48.772;9.154;2023-02-21T10:29:29;98366.44;;;17.76;46.45
18850;BME280;4989;48.772;9.154;2023-02-21T10:34:36;98372.47;;;18.68;50.20
18850;BME280;4989;48.772;9.154;2023-02-21T10:39:43;98367.25;;;17.67;48.86
18850;BME280;4989;48.772;9.154;2023-02-21T10:44:48;98372.72;;;17.95;46.29
18850;BME280;4989;48.772;9.154;2023-02-21T10:50:08;98372.72;;;17.49;47.96
18850;BME280;4989;48.772;9.154;2023-02-21T10:55:20;98359.69;;;19.13;44.31
18850;BME280;4989;48.772;9.154;2023-02-21T11:00:39;98358.25;;;18.37;45.37
18850;BME280;4989;48.772;9.154;2023-02-21T11:05:52;98345.13;;;17.34;48.41
18850;BME280;4989;48.772;9.154;2023-02-21T11:10:58;98344.28;;;18.07;48.10
18850;BME280;4989;48.772;9.154;2023-02-21T11:16:18;98329.34;;;19.13;45.04
18850;BME280;4989;48.772;9.154;2023-02-21T11:21:23;98333.13;;;22.56;42.34
18850;BME280;4989;48.772;9.154;2023-02-21T11:26:28;98326.22;;;23.43;36.31
18850;BME280;4989;48.772;9.154;2023-02-21T11:31:32;98327.47;;;24.88;34.78
18850;BME280;4989;48.772;9.154;2023-02-21T11:36:39;98309.59;;;27.62;31.36
18850;BME280;4989;48.772;9.154;2023-02-21T11:41:57;98292.22;;;29.48;29.63
18850;BME280;4989;48.772;9.154;2023-02-21T11:47:30;98296.28;;;29.47;29.20
18850;BME280;4989;48.772;9.154;2023-02-21T11:53:05;98277.81;;;27.98;31.29
18850;BME280;4989;48.772;9.154;2023-02-21T11:58:33;98269.53;;;28.51;30.58
18850;BME280;4989;48.772;9.154;2023-02-21T12:09:39;98250.97;;;28.74;29.94
18850;BME280;4989;48.772;9.154;2023-02-21T12:14:59;98232.94;;;28.36;29.19
18850;BME280;4989;48.772;9.154;2023-02-21T12:20:17;98229.63;;;28.98;29.38
18850;BME280;4989;48.772;9.154;2023-02-21T12:37:16;98196.78;;;28.24;28.81
18850;BME280;4989;48.772;9.154;2023-02-21T12:43:10;98189.34;;;27.04;31.71
18850;BME280;4989;48.772;9.154;2023-02-21T12:53:54;98170.44;;;24.89;35.37
18850;BME280;4989;48.772;9.154;2023-02-21T13:04:45;98141.56;;;23.70;36.81
18850;BME280;4989;48.772;9.154;2023-02-21T13:15:16;98124.31;;;28.26;30.05
18850;BME280;4989;48.772;9.154;2023-02-21T13:20:23;98120.00;;;28.12;30.97
18850;BME280;4989;48.772;9.154;2023-02-21T13:31:41;98095.97;;;25.91;30.92
18850;BME280;4989;48.772;9.154;2023-02-21T13:36:46;98090.31;;;22.75;37.54
18850;BME280;4989;48.772;9.154;2023-02-21T13:41:54;98081.66;;;21.05;38.27
18850;BME280;4989;48.772;9.154;2023-02-21T13:47:10;98068.56;;;20.22;40.51
18850;BME280;4989;48.772;9.154;2023-02-21T13:57:35;98051.69;;;22.27;37.85
18850;BME280;4989;48.772;9.154;2023-02-21T14:14:03;98035.84;;;21.30;42.19
18850;BME280;4989;48.772;9.154;2023-02-21T14:19:10;98027.69;;;20.05;41.55
18850;BME280;4989;48.772;9.154;2023-02-21T14:24:30;98021.03;;;19.36;46.78
18850;BME280;4989;48.772;9.154;2023-02-21T14:39:59;98006.88;;;18.48;51.82
18850;BME280;4989;48.772;9.154;2023-02-21T15:13:01;97979.31;;;17.65;54.19
18850;BME280;4989;48.772;9.154;2023-02-21T15:18:08;97983.66;;;17.57;47.02
18850;BME280;4989;48.772;9.154;2023-02-21T15:23:19;97976.63;;;17.56;49.64
18850;BME280;4989;48.772;9.154;2023-02-21T15:28:31;97972.72;;;17.48;50.60
18850;BME280;4989;48.772;9.154;2023-02-21T15:33:40;97972.94;;;17.35;48.80
18850;BME280;4989;48.772;9.154;2023-02-21T15:43:51;97962.25;;;17.13;52.04
18850;BME280;4989;48.772;9.154;2023-02-21T15:48:58;97958.63;;;17.07;51.13
18850;BME280;4989;48.772;9.154;2023-02-21T15:59:26;97953.50;;;16.90;51.94
18850;BME280;4989;48.772;9.154;2023-02-21T16:04:35;97964.69;;;16.78;51.10
18850;BME280;4989;48.772;9.154;2023-02-21T16:09:43;97954.34;;;16.63;52.21
18850;BME280;4989;48.772;9.154;2023-02-21T16:15:13;97948.47;;;16.46;52.09
18850;BME280;4989;48.772;9.154;2023-02-21T16:20:27;97943.94;;;16.34;53.12
18850;BME280;4989;48.772;9.154;2023-02-21T16:25:31;97942.44;;;16.15;53.27
18850;BME280;4989;48.772;9.154;2023-02-21T16:30:34;97949.44;;;16.07;53.22
18850;BME280;4989;48.772;9.154;2023-02-21T16:35:41;97948.53;;;16.00;53.71
18850;BME280;4989;48.772;9.154;2023-02-21T16:40:44;97953.00;;;15.70;54.64
18850;BME280;4989;48.772;9.154;2023-02-21T16:45:49;97956.44;;;15.34;55.55
18850;BME280;4989;48.772;9.154;2023-02-21T16:50:53;97946.66;;;15.15;56.16
18850;BME280;4989;48.772;9.154;2023-02-21T16:55:57;97952.38;;;14.89;57.45
18850;BME280;4989;48.772;9.154;2023-02-21T17:01:05;97954.84;;;14.65;58.16
18850;BME280;4989;48.772;9.154;2023-02-21T17:06:16;97964.00;;;14.49;59.19
18850;BME280;4989;48.772;9.154;2023-02-21T17:11:20;97965.13;;;14.30;59.35
18850;BME280;4989;48.772;9.154;2023-02-21T17:16:22;97959.22;;;14.09;60.33
18850;BME280;4989;48.772;9.154;2023-02-21T17:21:25;97975.06;;;13.92;60.53
18850;BME280;4989;48.772;9.154;2023-02-21T17:26:28;97971.03;;;13.84;61.33
18850;BME280;4989;48.772;9.154;2023-02-21T17:31:30;97978.63;;;13.67;61.33
18850;BME280;4989;48.772;9.154;2023-02-21T17:36:33;97971.00;;;13.62;62.26
18850;BME280;4989;48.772;9.154;2023-02-21T17:41:36;97980.00;;;13.50;62.58
18850;BME280;4989;48.772;9.154;2023-02-21T17:46:39;97979.47;;;13.42;62.58
18850;BME280;4989;48.772;9.154;2023-02-21T17:51:41;97977.09;;;13.32;62.96
18850;BME280;4989;48.772;9.154;2023-02-21T17:56:44;97983.75;;;13.31;63.08
18850;BME280;4989;48.772;9.154;2023-02-21T18:01:47;97983.09;;;13.26;63.40
18850;BME280;4989;48.772;9.154;2023-02-21T18:06:49;97986.34;;;13.21;63.60
18850;BME280;4989;48.772;9.154;2023-02-21T18:11:53;97982.78;;;13.12;63.93
18850;BME280;4989;48.772;9.154;2023-02-21T18:16:56;97982.00;;;13.11;64.27
18850;BME280;4989;48.772;9.154;2023-02-21T18:21:59;97988.22;;;13.12;63.97
18850;BME280;4989;48.772;9.154;2023-02-21T18:27:08;97995.31;;;13.09;63.79
18850;BME280;4989;48.772;9.154;2023-02-21T18:32:11;97988.34;;;13.08;63.61
18850;BME280;4989;48.772;9.154;2023-02-21T18:37:14;97994.00;;;13.01;64.22
18850;BME280;4989;48.772;9.154;2023-02-21T18:42:16;97988.78;;;12.94;64.35
18850;BME280;4989;48.772;9.154;2023-02-21T18:47:19;97989.88;;;12.83;65.05
18850;BME280;4989;48.772;9.154;2023-02-21T18:52:22;97986.28;;;12.87;64.66
18850;BME280;4989;48.772;9.154;2023-02-21T18:57:24;97991.75;;;12.87;64.99
18850;BME280;4989;48.772;9.154;2023-02-21T19:02:27;97992.72;;;12.93;64.53
18850;BME280;4989;48.772;9.154;2023-02-21T19:07:30;97991.28;;;12.88;65.01
18850;BME280;4989;48.772;9.154;2023-02-21T19:12:33;97998.59;;;12.78;65.53
18850;BME280;4989;48.772;9.154;2023-02-21T19:17:36;97994.66;;;12.54;66.47
18850;BME280;4989;48.772;9.154;2023-02-21T19:22:38;97986.56;;;12.37;67.65
18850;BME280;4989;48.772;9.154;2023-02-21T19:27:42;97988.47;;;12.24;68.05
18850;BME280;4989;48.772;9.154;2023-02-21T19:32:45;97995.00;;;12.14;68.04
18850;BME280;4989;48.772;9.154;2023-02-21T19:37:48;97987.00;;;12.07;68.28
18850;BME280;4989;48.772;9.154;2023-02-21T19:42:50;97988.00;;;12.13;69.08
18850;BME280;4989;48.772;9.154;2023-02-21T19:47:53;97990.88;;;12.22;68.04
18850;BME280;4989;48.772;9.154;2023-02-21T19:52:57;97981.78;;;12.12;69.44
18850;BME280;4989;48.772;9.154;2023-02-21T19:58:02;97988.22;;;12.06;69.96
18850;BME280;4989;48.772;9.154;2023-02-21T20:03:09;97990.59;;;12.04;71.40
18850;BME280;4989;48.772;9.154;2023-02-21T20:08:12;97989.28;;;11.96;69.75
18850;BME280;4989;48.772;9.154;2023-02-21T20:13:15;97989.03;;;11.90;69.93
18850;BME280;4989;48.772;9.154;2023-02-21T20:18:17;97992.09;;;11.76;71.95
18850;BME280;4989;48.772;9.154;2023-02-21T20:23:21;97989.81;;;11.74;71.48
18850;BME280;4989;48.772;9.154;2023-02-21T20:28:36;97986.34;;;11.57;72.14
18850;BME280;4989;48.772;9.154;2023-02-21T20:33:45;97992.75;;;11.51;72.04
18850;BME280;4989;48.772;9.154;2023-02-21T20:38:48;97991.38;;;11.42;72.68
18850;BME280;4989;48.772;9.154;2023-02-21T20:43:51;97991.41;;;11.26;74.50
18850;BME280;4989;48.772;9.154;2023-02-21T20:48:54;97991.03;;;11.24;73.79
18850;BME280;4989;48.772;9.154;2023-02-21T20:54:00;97987.47;;;11.11;74.74
18850;BME280;4989;48.772;9.154;2023-02-21T20:59:04;97989.69;;;10.99;75.31
18850;BME280;4989;48.772;9.154;2023-02-21T21:04:11;97986.28;;;10.95;75.19
18850;BME280;4989;48.772;9.154;2023-02-21T21:09:14;97982.72;;;10.98;76.13
18850;BME280;4989;48.772;9.154;2023-02-21T21:14:19;97981.03;;;11.05;77.55
18850;BME280;4989;48.772;9.154;2023-02-21T21:19:26;97977.00;;;11.09;74.59
18850;BME280;4989;48.772;9.154;2023-02-21T21:24:35;97976.75;;;11.04;74.38
18850;BME280;4989;48.772;9.154;2023-02-21T21:29:40;97982.03;;;11.11;78.82
18850;BME280;4989;48.772;9.154;2023-02-21T21:34:46;97970.91;;;11.21;75.06
18850;BME280;4989;48.772;9.154;2023-02-21T21:39:51;97973.88;;;11.27;76.18
18850;BME280;4989;48.772;9.154;2023-02-21T21:44:56;97973.72;;;11.02;75.19
18850;BME280;4989;48.772;9.154;2023-02-21T21:49:58;97973.00;;;10.97;75.60
18850;BME280;4989;48.772;9.154;2023-02-21T21:55:03;97966.06;;;10.96;75.51
18850;BME280;4989;48.772;9.154;2023-02-21T22:00:15;97968.69;;;10.84;76.45
18850;BME280;4989;48.772;9.154;2023-02-21T22:05:30;97965.25;;;10.63;79.01
18850;BME280;4989;48.772;9.154;2023-02-21T22:10:34;97970.25;;;10.65;76.67
18850;BME280;4989;48.772;9.154;2023-02-21T22:15:37;97957.84;;;10.64;76.57
18850;BME280;4989;48.772;9.154;2023-02-21T22:20:39;97957.50;;;10.62;78.45
18850;BME280;4989;48.772;9.154;2023-02-21T22:25:43;97960.88;;;10.49;78.48
18850;BME280;4989;48.772;9.154;2023-02-21T22:30:45;97947.81;;;10.44;77.85
18850;BME280;4989;48.772;9.154;2023-02-21T22:35:48;97950.84;;;10.46;80.35
18850;BME280;4989;48.772;9.154;2023-02-21T22:40:50;97945.09;;;10.44;78.26
18850;BME280;4989;48.772;9.154;2023-02-21T22:45:55;97935.72;;;10.29;82.95
18850;BME280;4989;48.772;9.154;2023-02-21T22:50:59;97934.22;;;10.24;79.28
18850;BME280;4989;48.772;9.154;2023-02-21T22:56:02;97933.44;;;10.24;79.92
18850;BME280;4989;48.772;9.154;2023-02-21T23:01:05;97938.88;;;10.24;84.72
18850;BME280;4989;48.772;9.154;2023-02-21T23:06:09;97929.03;;;10.14;80.70
18850;BME280;4989;48.772;9.154;2023-02-21T23:11:20;97930.19;;;10.13;80.41
18850;BME280;4989;48.772;9.154;2023-02-21T23:16:24;97925.88;;;10.15;79.70
18850;BME280;4989;48.772;9.154;2023-02-21T23:21:28;97926.88;;;10.05;81.09
18850;BME280;4989;48.772;9.154;2023-02-21T23:26:31;97924.81;;;9.89;81.45
18850;BME280;4989;48.772;9.154;2023-02-21T23:31:33;97934.16;;;9.88;82.21
18850;BME280;4989;48.772;9.154;2023-02-21T23:36:37;97924.50;;;9.87;81.18
18850;BME280;4989;48.772;9.154;2023-02-21T23:41:42;97920.19;;;9.90;81.99
18850;BME280;4989;48.772;9.154;2023-02-21T23:46:50;97926.91;;;10.01;90.25
18850;BME280;4989;48.772;9.154;2023-02-21T23:51:52;97914.03;;;9.85;82.82
18850;BME280;4989;48.772;9.154;2023-02-21T23:56:54;97905.63;;;9.80;83.39
